createdAt,value
2018-06-13T00:02:46.347Z,4.80
2018-06-13T00:07:49.325Z,5.30
2018-06-13T00:12:52.464Z,5.20
2018-06-13T00:17:56.351Z,5.40
2018-06-13T00:22:59.562Z,4.83
2018-06-13T00:28:02.992Z,4.60
2018-06-13T00:33:06.182Z,5.53
2018-06-13T00:38:09.159Z,5.17
2018-06-13T00:43:12.238Z,5.50
2018-06-13T00:48:15.997Z,4.53
2018-06-13T00:53:19.048Z,3.43
2018-06-13T00:58:22.324Z,4.43
2018-06-13T01:03:25.646Z,4.17
2018-06-13T01:08:29.322Z,4.17
2018-06-13T01:13:32.784Z,4.23
2018-06-13T01:18:36.503Z,3.90
2018-06-13T01:23:39.680Z,3.77
2018-06-13T01:28:43.259Z,4.17
2018-06-13T01:33:46.326Z,4.00
2018-06-13T01:38:49.424Z,3.10
2018-06-13T01:43:52.782Z,3.90
2018-06-13T01:48:56.415Z,4.20
2018-06-13T01:54:00.185Z,3.90
2018-06-13T01:59:03.521Z,5.50
2018-06-13T02:04:06.862Z,3.90
2018-06-13T02:09:09.847Z,4.87
2018-06-13T02:14:13.837Z,4.47
2018-06-13T02:19:17.506Z,5.40
2018-06-13T02:24:21.081Z,4.40
2018-06-13T02:29:24.648Z,3.93
2018-06-13T02:34:28.013Z,4.40
2018-06-13T02:39:31.225Z,4.37
2018-06-13T02:44:34.477Z,5.20
2018-06-13T02:49:37.508Z,4.73
2018-06-13T02:54:41.178Z,5.23
2018-06-13T02:59:44.790Z,3.53
2018-06-13T03:04:47.956Z,3.77
2018-06-13T03:09:51.666Z,3.03
2018-06-13T03:14:54.886Z,4.10
2018-06-13T03:19:58.713Z,5.07
2018-06-13T03:25:02.269Z,5.47
2018-06-13T03:30:05.764Z,5.13
2018-06-13T03:35:08.875Z,4.80
2018-06-13T03:40:12.284Z,4.07
2018-06-13T03:45:15.399Z,3.50
2018-06-13T03:50:18.541Z,4.50
2018-06-13T03:55:21.673Z,4.27
2018-06-13T04:00:25.183Z,4.20
2018-06-13T04:05:28.943Z,4.03
2018-06-13T04:10:31.911Z,4.10
2018-06-13T04:15:34.999Z,4.07
2018-06-13T04:20:37.889Z,4.10
2018-06-13T04:25:40.796Z,3.07
2018-06-13T04:30:44.029Z,3.00
2018-06-13T04:35:47.285Z,4.20
2018-06-13T04:40:50.541Z,4.93
2018-06-13T04:45:53.517Z,3.60
2018-06-13T04:50:56.481Z,4.30
2018-06-13T04:55:59.421Z,4.70
2018-06-13T05:01:02.503Z,3.30
2018-06-13T05:06:06.045Z,4.53
2018-06-13T05:11:09.289Z,3.70
2018-06-13T05:16:12.612Z,2.70
2018-06-13T05:21:16.228Z,4.50
2018-06-13T05:26:19.181Z,4.50
2018-06-13T05:31:22.302Z,3.60
2018-06-13T05:36:25.495Z,4.43
2018-06-13T05:41:28.816Z,3.00
2018-06-13T05:46:31.777Z,3.53
2018-06-13T05:51:34.728Z,3.43
2018-06-13T05:56:37.686Z,4.30
2018-06-13T06:01:40.693Z,4.37
2018-06-13T06:06:43.590Z,4.10
2018-06-13T06:11:46.464Z,3.80
2018-06-13T06:16:49.784Z,3.97
2018-06-13T06:21:52.685Z,3.93
2018-06-13T06:26:55.626Z,3.90
2018-06-13T06:31:59.004Z,3.00
2018-06-13T06:37:01.955Z,3.83
2018-06-13T06:42:05.193Z,2.80
2018-06-13T06:47:08.804Z,3.93
2018-06-13T06:52:11.722Z,2.70
2018-06-13T06:57:14.597Z,3.30
2018-06-13T07:02:17.688Z,4.00
2018-06-13T07:07:20.597Z,3.50
2018-06-13T07:12:23.513Z,3.40
2018-06-13T07:17:26.705Z,3.90
2018-06-13T07:22:29.653Z,2.50
2018-06-13T07:27:34.822Z,3.50
2018-06-13T07:32:38.143Z,3.03
2018-06-13T07:37:41.087Z,3.10
2018-06-13T07:42:44.018Z,3.37
2018-06-13T07:47:47.231Z,3.33
2018-06-13T07:52:50.161Z,2.70
2018-06-13T07:57:53.089Z,2.40
2018-06-13T08:02:56.088Z,3.30
2018-06-13T08:07:59.097Z,2.27
2018-06-13T08:13:02.038Z,2.47
2018-06-13T08:18:05.152Z,3.57
2018-06-13T08:23:08.315Z,3.00
2018-06-13T08:28:11.180Z,2.40
2018-06-13T08:33:14.695Z,3.03
2018-06-13T08:38:17.608Z,3.03
2018-06-13T08:43:20.506Z,2.70
2018-06-13T08:48:23.587Z,2.70
2018-06-13T08:53:30.349Z,2.80
2018-06-13T08:58:33.492Z,3.00
2018-06-13T09:03:36.605Z,3.30
2018-06-13T09:08:39.676Z,2.40
2018-06-13T09:13:42.602Z,2.87
2018-06-13T09:18:45.747Z,2.67
2018-06-13T09:23:48.956Z,2.80
2018-06-13T09:28:51.849Z,2.37
2018-06-13T09:33:55.438Z,2.40
2018-06-13T09:38:58.314Z,2.23
2018-06-13T09:44:01.225Z,2.60
2018-06-13T09:49:04.213Z,3.00
2018-06-13T09:54:07.549Z,2.67
2018-06-13T09:59:14.218Z,2.27
2018-06-13T10:04:19.778Z,3.03
2018-06-13T10:09:22.948Z,2.47
2018-06-13T10:14:25.830Z,2.80
2018-06-13T10:19:29.167Z,2.23
2018-06-13T10:24:32.251Z,2.97
2018-06-13T10:29:35.881Z,3.73
2018-06-13T10:34:38.977Z,2.67
2018-06-13T10:39:41.901Z,2.53
2018-06-13T10:44:44.800Z,2.70
2018-06-13T10:49:47.821Z,2.70
2018-06-13T10:54:50.805Z,3.03
2018-06-13T10:59:53.991Z,2.47
2018-06-13T11:05:03.157Z,3.10
2018-06-13T11:10:06.056Z,2.73
2018-06-13T11:15:09.864Z,2.13
2018-06-13T11:20:12.933Z,2.27
2018-06-13T11:25:16.864Z,2.57
2018-06-13T11:30:30.856Z,2.73
2018-06-13T11:35:35.527Z,2.93
2018-06-13T11:40:38.833Z,2.77
2018-06-13T11:45:42.243Z,3.07
2018-06-13T11:50:45.135Z,2.90
2018-06-13T11:55:48.008Z,3.33
2018-06-13T12:00:50.924Z,2.97
2018-06-13T12:05:54.145Z,3.10
2018-06-13T12:11:03.451Z,3.40
2018-06-13T12:16:06.767Z,3.60
2018-06-13T12:21:09.753Z,3.87
2018-06-13T12:26:12.635Z,3.20
2018-06-13T12:31:15.729Z,3.43
2018-06-13T12:36:18.752Z,3.60
2018-06-13T12:41:21.653Z,3.50
2018-06-13T12:46:26.865Z,3.80
2018-06-13T12:51:29.767Z,3.90
2018-06-13T12:56:32.651Z,4.20
2018-06-13T13:01:35.525Z,3.43
2018-06-13T13:06:38.825Z,3.80
2018-06-13T13:11:42.238Z,3.33
2018-06-13T13:16:45.409Z,3.93
2018-06-13T13:21:48.352Z,2.90
2018-06-13T13:26:51.367Z,3.23
2018-06-13T13:31:54.343Z,2.20
2018-06-13T13:36:57.687Z,3.00
2018-06-13T13:42:00.893Z,3.20
2018-06-13T13:47:03.794Z,2.63
2018-06-13T13:52:06.700Z,2.77
2018-06-13T13:57:09.677Z,2.27
2018-06-13T14:02:12.609Z,3.17
2018-06-13T14:07:15.798Z,2.67
2018-06-13T14:12:18.897Z,3.53
2018-06-13T14:17:21.798Z,2.57
2018-06-13T14:22:29.538Z,3.17
2018-06-13T14:27:32.485Z,2.30
2018-06-13T14:32:40.368Z,2.60
2018-06-13T14:37:43.575Z,3.20
2018-06-13T14:42:46.492Z,2.97
2018-06-13T14:47:49.673Z,2.33
2018-06-13T14:52:52.910Z,3.73
2018-06-13T14:57:55.918Z,2.40
2018-06-13T15:02:58.860Z,3.30
2018-06-13T15:08:01.870Z,3.30
2018-06-13T15:13:04.975Z,2.17
2018-06-13T15:18:08.966Z,2.40
2018-06-13T15:23:12.345Z,2.40
2018-06-13T15:28:15.541Z,2.30
2018-06-13T15:33:18.469Z,3.13
2018-06-13T15:38:22.229Z,2.40
2018-06-13T15:43:25.367Z,2.63
2018-06-13T15:48:28.252Z,2.73
2018-06-13T15:53:36.141Z,2.20
2018-06-13T15:58:40.324Z,2.50
2018-06-13T16:03:43.330Z,2.53
2018-06-13T16:08:49.903Z,3.10
2018-06-13T16:13:53.114Z,2.10
2018-06-13T16:18:56.250Z,2.27
2018-06-13T16:23:59.388Z,2.63
2018-06-13T16:29:03.651Z,2.33
2018-06-13T16:34:07.153Z,2.07
2018-06-13T16:39:15.170Z,2.27
2018-06-13T16:44:18.687Z,2.30
2018-06-13T16:49:22.965Z,2.43
2018-06-13T16:54:37.197Z,1.90
2018-06-13T16:59:40.106Z,2.77
2018-06-13T17:04:43.374Z,2.20
2018-06-13T17:09:46.853Z,2.57
2018-06-13T17:14:50.079Z,2.30
2018-06-13T17:19:53.359Z,2.10
2018-06-13T17:24:56.752Z,2.47
2018-06-13T17:30:00.327Z,2.23
2018-06-13T17:35:03.965Z,2.10
2018-06-13T17:40:07.480Z,2.57
2018-06-13T17:45:10.625Z,2.33
2018-06-13T17:50:13.876Z,2.20
2018-06-13T17:55:17.973Z,3.03
2018-06-13T18:00:21.455Z,2.57
2018-06-13T18:05:25.117Z,2.50
2018-06-13T18:10:28.828Z,2.50
2018-06-13T18:15:31.824Z,2.50
2018-06-13T18:20:34.969Z,2.63
2018-06-13T18:25:38.223Z,3.13
2018-06-13T18:30:41.494Z,3.03
2018-06-13T18:35:45.097Z,3.93
2018-06-13T18:40:48.564Z,2.60
2018-06-13T18:45:51.845Z,2.70
2018-06-13T18:50:55.092Z,3.60
2018-06-13T18:55:58.638Z,2.90
2018-06-13T19:01:02.031Z,3.60
2018-06-13T19:06:05.335Z,3.73
2018-06-13T19:11:09.259Z,3.00
2018-06-13T19:16:12.547Z,3.73
2018-06-13T19:21:16.085Z,2.80
2018-06-13T19:26:19.707Z,3.20
2018-06-13T19:31:24.802Z,3.10
2018-06-13T19:36:28.444Z,2.77
2018-06-13T19:41:32.107Z,3.00
2018-06-13T19:46:35.949Z,2.57
2018-06-13T19:51:39.632Z,2.80
2018-06-13T19:56:43.702Z,3.00
2018-06-13T20:01:47.033Z,2.57
2018-06-13T20:06:50.278Z,2.20
2018-06-13T20:11:54.465Z,2.10
2018-06-13T20:17:03.231Z,2.60
2018-06-13T20:22:06.517Z,3.20
2018-06-13T20:27:14.985Z,3.60
2018-06-13T20:32:18.214Z,2.60
2018-06-13T20:37:21.423Z,3.30
2018-06-13T20:42:24.967Z,2.60
2018-06-13T20:47:27.928Z,3.30
2018-06-13T20:52:31.249Z,2.57
2018-06-13T20:57:34.180Z,2.40
2018-06-13T21:02:37.163Z,3.60
2018-06-13T21:07:40.104Z,2.97
2018-06-13T21:12:43.029Z,3.17
2018-06-13T21:17:46.212Z,3.03
2018-06-13T21:22:49.058Z,3.20
2018-06-13T21:27:51.960Z,3.50
2018-06-13T21:32:54.872Z,3.03
2018-06-13T21:37:58.100Z,3.40
2018-06-13T21:43:01.271Z,3.10
2018-06-13T21:48:04.569Z,3.90
2018-06-13T21:53:07.516Z,2.93
2018-06-13T21:58:11.164Z,3.30
2018-06-13T22:03:14.151Z,3.10
2018-06-13T22:08:17.450Z,3.80
2018-06-13T22:13:21.970Z,4.13
2018-06-13T22:18:25.284Z,3.50
2018-06-13T22:23:28.394Z,3.37
2018-06-13T22:28:31.329Z,3.67
2018-06-13T22:33:34.567Z,3.20
2018-06-13T22:38:37.549Z,3.00
2018-06-13T22:43:41.046Z,2.70
2018-06-13T22:48:44.847Z,3.60
2018-06-13T22:53:48.112Z,2.87
2018-06-13T22:58:51.489Z,3.10
2018-06-13T23:03:55.088Z,3.30
2018-06-13T23:08:58.241Z,3.40
2018-06-13T23:14:01.379Z,3.70
2018-06-13T23:19:04.586Z,3.40
2018-06-13T23:24:08.092Z,3.30
2018-06-13T23:29:11.324Z,3.40
2018-06-13T23:34:14.333Z,3.43
2018-06-13T23:39:17.500Z,2.83
2018-06-13T23:44:20.900Z,3.20
2018-06-13T23:49:24.457Z,2.30
2018-06-13T23:54:28.681Z,2.00
2018-06-13T23:59:31.885Z,2.80
